sensor_id;sensor_type;location;lat;lon;timestamp;P1;durP1;ratioP1;P2;durP2;ratioP2
85831;SDS011;76278;51.296;16.924;2024-03-23T00:54:34;32.40;;;18.05;;
85831;SDS011;76278;51.296;16.924;2024-03-23T00:57:00;31.60;;;16.60;;
85831;SDS011;76278;51.296;16.924;2024-03-23T00:59:25;28.70;;;15.80;;
85831;SDS011;76278;51.296;16.924;2024-03-23T01:01:53;31.63;;;17.10;;
85831;SDS011;76278;51.296;16.924;2024-03-23T01:04:19;30.02;;;15.57;;
85831;SDS011;76278;51.296;16.924;2024-03-23T01:06:44;34.67;;;18.00;;
85831;SDS011;76278;51.296;16.924;2024-03-23T01:09:09;31.97;;;17.37;;
85831;SDS011;76278;51.296;16.924;2024-03-23T01:11:35;30.33;;;16.05;;
85831;SDS011;76278;51.296;16.924;2024-03-23T01:14:01;32.20;;;16.90;;
85831;SDS011;76278;51.296;16.924;2024-03-23T01:16:26;30.70;;;15.97;;
85831;SDS011;76278;51.296;16.924;2024-03-23T01:18:52;31.98;;;15.15;;
85831;SDS011;76278;51.296;16.924;2024-03-23T01:21:17;28.80;;;14.27;;
85831;SDS011;76278;51.296;16.924;2024-03-23T01:23:42;34.33;;;17.13;;
85831;SDS011;76278;51.296;16.924;2024-03-23T01:26:08;28.23;;;16.05;;
85831;SDS011;76278;51.296;16.924;2024-03-23T01:28:33;31.80;;;15.97;;
85831;SDS011;76278;51.296;16.924;2024-03-23T01:30:58;32.20;;;18.10;;
85831;SDS011;76278;51.296;16.924;2024-03-23T01:33:24;32.93;;;18.00;;
85831;SDS011;76278;51.296;16.924;2024-03-23T01:35:49;37.20;;;20.53;;
85831;SDS011;76278;51.296;16.924;2024-03-23T01:38:14;42.80;;;22.80;;
85831;SDS011;76278;51.296;16.924;2024-03-23T01:40:40;43.60;;;22.95;;
85831;SDS011;76278;51.296;16.924;2024-03-23T01:43:05;39.15;;;21.40;;
85831;SDS011;76278;51.296;16.924;2024-03-23T01:45:35;38.08;;;20.65;;
85831;SDS011;76278;51.296;16.924;2024-03-23T01:48:02;34.95;;;20.33;;
85831;SDS011;76278;51.296;16.924;2024-03-23T01:50:28;34.63;;;18.95;;
85831;SDS011;76278;51.296;16.924;2024-03-23T01:52:54;28.90;;;16.67;;
85831;SDS011;76278;51.296;16.924;2024-03-23T01:55:19;35.03;;;17.15;;
85831;SDS011;76278;51.296;16.924;2024-03-23T01:57:45;35.70;;;18.67;;
85831;SDS011;76278;51.296;16.924;2024-03-23T02:00:10;32.53;;;18.45;;
85831;SDS011;76278;51.296;16.924;2024-03-23T02:02:46;41.58;;;19.77;;
85831;SDS011;76278;51.296;16.924;2024-03-23T02:05:12;47.78;;;24.95;;
85831;SDS011;76278;51.296;16.924;2024-03-23T02:07:38;44.13;;;24.50;;
85831;SDS011;76278;51.296;16.924;2024-03-23T02:10:05;47.33;;;26.15;;
85831;SDS011;76278;51.296;16.924;2024-03-23T02:12:31;55.15;;;29.77;;
85831;SDS011;76278;51.296;16.924;2024-03-23T02:14:57;51.22;;;29.45;;
85831;SDS011;76278;51.296;16.924;2024-03-23T02:17:22;46.97;;;26.00;;
85831;SDS011;76278;51.296;16.924;2024-03-23T02:19:47;37.78;;;21.48;;
85831;SDS011;76278;51.296;16.924;2024-03-23T02:22:13;42.00;;;25.33;;
85831;SDS011;76278;51.296;16.924;2024-03-23T02:24:40;41.05;;;24.67;;
85831;SDS011;76278;51.296;16.924;2024-03-23T02:27:06;42.55;;;22.88;;
85831;SDS011;76278;51.296;16.924;2024-03-23T02:29:31;45.83;;;27.30;;
85831;SDS011;76278;51.296;16.924;2024-03-23T02:31:56;39.83;;;21.97;;
85831;SDS011;76278;51.296;16.924;2024-03-23T02:34:23;45.15;;;24.25;;
85831;SDS011;76278;51.296;16.924;2024-03-23T02:36:49;44.60;;;23.58;;
85831;SDS011;76278;51.296;16.924;2024-03-23T02:39:14;30.67;;;16.97;;
85831;SDS011;76278;51.296;16.924;2024-03-23T02:41:40;26.33;;;13.45;;
85831;SDS011;76278;51.296;16.924;2024-03-23T02:44:05;24.03;;;13.33;;
85831;SDS011;76278;51.296;16.924;2024-03-23T02:46:30;25.48;;;13.07;;
85831;SDS011;76278;51.296;16.924;2024-03-23T02:48:56;29.70;;;15.13;;
85831;SDS011;76278;51.296;16.924;2024-03-23T02:51:21;31.17;;;15.05;;
85831;SDS011;76278;51.296;16.924;2024-03-23T02:53:47;29.85;;;15.77;;
85831;SDS011;76278;51.296;16.924;2024-03-23T02:56:12;31.90;;;17.07;;
85831;SDS011;76278;51.296;16.924;2024-03-23T02:58:41;32.92;;;18.40;;
85831;SDS011;76278;51.296;16.924;2024-03-23T03:01:06;33.83;;;19.90;;
85831;SDS011;76278;51.296;16.924;2024-03-23T03:03:31;29.83;;;16.57;;
85831;SDS011;76278;51.296;16.924;2024-03-23T03:05:57;30.13;;;15.15;;
85831;SDS011;76278;51.296;16.924;2024-03-23T03:08:23;29.30;;;14.27;;
85831;SDS011;76278;51.296;16.924;2024-03-23T03:10:48;25.77;;;14.07;;
85831;SDS011;76278;51.296;16.924;2024-03-23T03:13:13;28.20;;;14.90;;
85831;SDS011;76278;51.296;16.924;2024-03-23T03:15:40;28.15;;;12.85;;
85831;SDS011;76278;51.296;16.924;2024-03-23T03:18:06;28.75;;;14.95;;
85831;SDS011;76278;51.296;16.924;2024-03-23T03:20:31;24.75;;;13.68;;
85831;SDS011;76278;51.296;16.924;2024-03-23T03:22:56;28.90;;;16.30;;
85831;SDS011;76278;51.296;16.924;2024-03-23T03:25:22;27.00;;;15.60;;
85831;SDS011;76278;51.296;16.924;2024-03-23T03:27:47;28.77;;;15.70;;
85831;SDS011;76278;51.296;16.924;2024-03-23T03:30:12;25.80;;;14.30;;
85831;SDS011;76278;51.296;16.924;2024-03-23T03:32:38;27.48;;;15.43;;
85831;SDS011;76278;51.296;16.924;2024-03-23T03:35:03;25.30;;;14.30;;
85831;SDS011;76278;51.296;16.924;2024-03-23T03:37:29;28.23;;;15.52;;
85831;SDS011;76278;51.296;16.924;2024-03-23T03:39:55;26.10;;;13.00;;
85831;SDS011;76278;51.296;16.924;2024-03-23T03:42:20;24.17;;;13.13;;
85831;SDS011;76278;51.296;16.924;2024-03-23T03:44:45;26.88;;;14.20;;
85831;SDS011;76278;51.296;16.924;2024-03-23T03:47:11;23.23;;;12.17;;
85831;SDS011;76278;51.296;16.924;2024-03-23T03:49:36;25.90;;;13.65;;
85831;SDS011;76278;51.296;16.924;2024-03-23T03:52:01;26.80;;;12.82;;
85831;SDS011;76278;51.296;16.924;2024-03-23T03:54:27;23.60;;;12.88;;
85831;SDS011;76278;51.296;16.924;2024-03-23T03:56:52;26.27;;;13.10;;
85831;SDS011;76278;51.296;16.924;2024-03-23T03:59:18;26.50;;;13.70;;
85831;SDS011;76278;51.296;16.924;2024-03-23T04:01:43;26.93;;;13.40;;
85831;SDS011;76278;51.296;16.924;2024-03-23T04:04:08;28.30;;;15.43;;
85831;SDS011;76278;51.296;16.924;2024-03-23T04:06:34;24.60;;;14.37;;
85831;SDS011;76278;51.296;16.924;2024-03-23T04:08:59;28.00;;;15.35;;
85831;SDS011;76278;51.296;16.924;2024-03-23T04:11:24;28.02;;;15.05;;
85831;SDS011;76278;51.296;16.924;2024-03-23T04:13:50;28.20;;;14.75;;
85831;SDS011;76278;51.296;16.924;2024-03-23T04:16:27;27.33;;;14.30;;
85831;SDS011;76278;51.296;16.924;2024-03-23T04:18:54;27.95;;;13.20;;
85831;SDS011;76278;51.296;16.924;2024-03-23T04:21:19;27.75;;;13.48;;
85831;SDS011;76278;51.296;16.924;2024-03-23T04:23:45;22.85;;;13.10;;
85831;SDS011;76278;51.296;16.924;2024-03-23T04:26:10;25.10;;;13.27;;
85831;SDS011;76278;51.296;16.924;2024-03-23T04:28:36;25.60;;;12.83;;
85831;SDS011;76278;51.296;16.924;2024-03-23T04:31:04;21.87;;;12.80;;
85831;SDS011;76278;51.296;16.924;2024-03-23T04:33:30;23.92;;;13.02;;
85831;SDS011;76278;51.296;16.924;2024-03-23T04:35:55;25.10;;;13.88;;
85831;SDS011;76278;51.296;16.924;2024-03-23T04:38:21;25.63;;;13.73;;
85831;SDS011;76278;51.296;16.924;2024-03-23T04:40:53;25.15;;;13.65;;
85831;SDS011;76278;51.296;16.924;2024-03-23T04:43:22;25.55;;;13.52;;
85831;SDS011;76278;51.296;16.924;2024-03-23T04:45:48;25.40;;;13.63;;
85831;SDS011;76278;51.296;16.924;2024-03-23T04:48:13;25.70;;;13.48;;
85831;SDS011;76278;51.296;16.924;2024-03-23T04:50:38;25.93;;;13.90;;
85831;SDS011;76278;51.296;16.924;2024-03-23T04:53:04;27.40;;;13.40;;
85831;SDS011;76278;51.296;16.924;2024-03-23T04:55:29;23.00;;;12.63;;
85831;SDS011;76278;51.296;16.924;2024-03-23T04:57:55;27.27;;;13.95;;
85831;SDS011;76278;51.296;16.924;2024-03-23T05:00:21;29.03;;;13.53;;
85831;SDS011;76278;51.296;16.924;2024-03-23T05:02:46;26.20;;;14.07;;
85831;SDS011;76278;51.296;16.924;2024-03-23T05:05:12;23.77;;;12.83;;
85831;SDS011;76278;51.296;16.924;2024-03-23T05:07:37;25.20;;;12.88;;
85831;SDS011;76278;51.296;16.924;2024-03-23T05:10:02;26.33;;;13.30;;
85831;SDS011;76278;51.296;16.924;2024-03-23T05:12:28;28.38;;;14.05;;
85831;SDS011;76278;51.296;16.924;2024-03-23T05:14:53;30.07;;;15.90;;
85831;SDS011;76278;51.296;16.924;2024-03-23T05:17:19;27.38;;;13.45;;
85831;SDS011;76278;51.296;16.924;2024-03-23T05:19:44;30.17;;;15.83;;
85831;SDS011;76278;51.296;16.924;2024-03-23T05:22:09;30.83;;;16.03;;
85831;SDS011;76278;51.296;16.924;2024-03-23T05:24:35;26.88;;;13.95;;
85831;SDS011;76278;51.296;16.924;2024-03-23T05:27:00;32.47;;;15.00;;
85831;SDS011;76278;51.296;16.924;2024-03-23T05:29:25;37.60;;;17.88;;
85831;SDS011;76278;51.296;16.924;2024-03-23T05:31:51;37.70;;;18.47;;
85831;SDS011;76278;51.296;16.924;2024-03-23T05:34:17;37.33;;;19.63;;
85831;SDS011;76278;51.296;16.924;2024-03-23T05:36:42;36.47;;;19.25;;
85831;SDS011;76278;51.296;16.924;2024-03-23T05:39:08;38.60;;;20.10;;
85831;SDS011;76278;51.296;16.924;2024-03-23T05:41:33;41.70;;;21.02;;
85831;SDS011;76278;51.296;16.924;2024-03-23T05:44:01;45.88;;;24.98;;
85831;SDS011;76278;51.296;16.924;2024-03-23T05:46:26;56.03;;;32.20;;
85831;SDS011;76278;51.296;16.924;2024-03-23T05:48:52;47.83;;;28.08;;
85831;SDS011;76278;51.296;16.924;2024-03-23T05:51:17;44.05;;;24.02;;
85831;SDS011;76278;51.296;16.924;2024-03-23T05:53:43;40.78;;;21.40;;
85831;SDS011;76278;51.296;16.924;2024-03-23T05:56:08;35.83;;;19.43;;
85831;SDS011;76278;51.296;16.924;2024-03-23T05:58:34;32.00;;;19.50;;
85831;SDS011;76278;51.296;16.924;2024-03-23T06:01:02;37.45;;;19.48;;
85831;SDS011;76278;51.296;16.924;2024-03-23T06:03:28;36.35;;;20.15;;
85831;SDS011;76278;51.296;16.924;2024-03-23T06:05:53;37.88;;;20.10;;
85831;SDS011;76278;51.296;16.924;2024-03-23T06:08:19;38.58;;;20.38;;
85831;SDS011;76278;51.296;16.924;2024-03-23T06:10:45;38.78;;;19.70;;
85831;SDS011;76278;51.296;16.924;2024-03-23T06:13:11;33.45;;;18.60;;
85831;SDS011;76278;51.296;16.924;2024-03-23T06:15:37;36.53;;;19.98;;
85831;SDS011;76278;51.296;16.924;2024-03-23T06:18:03;34.30;;;19.23;;
85831;SDS011;76278;51.296;16.924;2024-03-23T06:20:29;35.67;;;19.52;;
85831;SDS011;76278;51.296;16.924;2024-03-23T06:22:54;36.22;;;19.48;;
85831;SDS011;76278;51.296;16.924;2024-03-23T06:25:19;37.83;;;20.20;;
85831;SDS011;76278;51.296;16.924;2024-03-23T06:27:45;35.50;;;19.53;;
85831;SDS011;76278;51.296;16.924;2024-03-23T06:30:10;33.13;;;18.83;;
85831;SDS011;76278;51.296;16.924;2024-03-23T06:32:36;31.05;;;18.10;;
85831;SDS011;76278;51.296;16.924;2024-03-23T06:35:01;26.30;;;15.20;;
85831;SDS011;76278;51.296;16.924;2024-03-23T06:37:33;27.55;;;15.20;;
85831;SDS011;76278;51.296;16.924;2024-03-23T06:39:58;28.65;;;15.20;;
85831;SDS011;76278;51.296;16.924;2024-03-23T06:42:23;22.65;;;12.80;;
85831;SDS011;76278;51.296;16.924;2024-03-23T06:44:49;23.03;;;13.27;;
85831;SDS011;76278;51.296;16.924;2024-03-23T06:47:14;20.97;;;11.70;;
85831;SDS011;76278;51.296;16.924;2024-03-23T06:49:39;21.57;;;12.13;;
85831;SDS011;76278;51.296;16.924;2024-03-23T06:52:05;22.10;;;12.23;;
85831;SDS011;76278;51.296;16.924;2024-03-23T06:54:30;23.33;;;13.35;;
85831;SDS011;76278;51.296;16.924;2024-03-23T06:56:56;21.03;;;12.83;;
85831;SDS011;76278;51.296;16.924;2024-03-23T06:59:21;20.75;;;12.15;;
85831;SDS011;76278;51.296;16.924;2024-03-23T07:01:46;20.77;;;11.68;;
85831;SDS011;76278;51.296;16.924;2024-03-23T07:04:12;21.17;;;12.50;;
85831;SDS011;76278;51.296;16.924;2024-03-23T07:06:43;21.38;;;12.27;;
85831;SDS011;76278;51.296;16.924;2024-03-23T07:09:09;20.38;;;12.75;;
85831;SDS011;76278;51.296;16.924;2024-03-23T07:11:35;21.48;;;12.82;;
85831;SDS011;76278;51.296;16.924;2024-03-23T07:14:00;18.85;;;11.90;;
85831;SDS011;76278;51.296;16.924;2024-03-23T07:16:26;20.10;;;12.60;;
85831;SDS011;76278;51.296;16.924;2024-03-23T07:18:52;18.67;;;11.30;;
85831;SDS011;76278;51.296;16.924;2024-03-23T07:21:17;18.43;;;11.43;;
85831;SDS011;76278;51.296;16.924;2024-03-23T07:23:42;20.20;;;12.17;;
85831;SDS011;76278;51.296;16.924;2024-03-23T07:26:11;18.17;;;11.45;;
85831;SDS011;76278;51.296;16.924;2024-03-23T07:28:36;18.55;;;11.57;;
85831;SDS011;76278;51.296;16.924;2024-03-23T07:31:06;18.85;;;11.70;;
85831;SDS011;76278;51.296;16.924;2024-03-23T07:33:36;19.23;;;11.88;;
85831;SDS011;76278;51.296;16.924;2024-03-23T07:36:03;21.42;;;12.43;;
85831;SDS011;76278;51.296;16.924;2024-03-23T07:38:29;17.67;;;11.15;;
85831;SDS011;76278;51.296;16.924;2024-03-23T07:41:10;19.92;;;12.35;;
85831;SDS011;76278;51.296;16.924;2024-03-23T07:43:39;23.63;;;12.93;;
85831;SDS011;76278;51.296;16.924;2024-03-23T07:46:07;19.83;;;12.82;;
85831;SDS011;76278;51.296;16.924;2024-03-23T07:48:33;20.00;;;12.23;;
85831;SDS011;76278;51.296;16.924;2024-03-23T07:51:05;19.87;;;11.37;;
85831;SDS011;76278;51.296;16.924;2024-03-23T07:53:42;20.75;;;12.60;;
85831;SDS011;76278;51.296;16.924;2024-03-23T07:56:09;20.45;;;12.20;;
85831;SDS011;76278;51.296;16.924;2024-03-23T07:58:35;18.02;;;11.10;;
85831;SDS011;76278;51.296;16.924;2024-03-23T08:01:09;18.17;;;11.38;;
85831;SDS011;76278;51.296;16.924;2024-03-23T08:03:36;19.40;;;11.77;;
85831;SDS011;76278;51.296;16.924;2024-03-23T08:06:08;20.33;;;13.13;;
85831;SDS011;76278;51.296;16.924;2024-03-23T08:08:40;19.92;;;12.68;;
85831;SDS011;76278;51.296;16.924;2024-03-23T08:11:06;19.95;;;13.23;;
85831;SDS011;76278;51.296;16.924;2024-03-23T08:13:33;19.48;;;12.52;;
85831;SDS011;76278;51.296;16.924;2024-03-23T08:16:01;21.48;;;13.93;;
85831;SDS011;76278;51.296;16.924;2024-03-23T08:18:28;20.40;;;12.82;;
85831;SDS011;76278;51.296;16.924;2024-03-23T08:23:25;18.42;;;12.50;;
85831;SDS011;76278;51.296;16.924;2024-03-23T08:25:52;19.30;;;12.35;;
85831;SDS011;76278;51.296;16.924;2024-03-23T08:28:17;21.60;;;12.35;;
85831;SDS011;76278;51.296;16.924;2024-03-23T08:30:42;20.42;;;12.52;;
85831;SDS011;76278;51.296;16.924;2024-03-23T08:33:08;18.27;;;11.82;;
85831;SDS011;76278;51.296;16.924;2024-03-23T08:35:33;21.43;;;12.07;;
85831;SDS011;76278;51.296;16.924;2024-03-23T08:37:59;19.02;;;11.48;;
85831;SDS011;76278;51.296;16.924;2024-03-23T08:40:25;16.88;;;10.90;;
85831;SDS011;76278;51.296;16.924;2024-03-23T08:42:50;18.35;;;11.48;;
85831;SDS011;76278;51.296;16.924;2024-03-23T08:45:16;18.13;;;10.73;;
85831;SDS011;76278;51.296;16.924;2024-03-23T08:47:41;19.48;;;10.90;;
85831;SDS011;76278;51.296;16.924;2024-03-23T08:50:06;17.08;;;9.98;;
85831;SDS011;76278;51.296;16.924;2024-03-23T08:52:32;20.20;;;10.75;;
85831;SDS011;76278;51.296;16.924;2024-03-23T08:54:58;17.80;;;10.60;;
85831;SDS011;76278;51.296;16.924;2024-03-23T08:57:23;18.02;;;10.13;;
85831;SDS011;76278;51.296;16.924;2024-03-23T08:59:49;17.63;;;10.53;;
85831;SDS011;76278;51.296;16.924;2024-03-23T09:02:14;17.40;;;11.10;;
85831;SDS011;76278;51.296;16.924;2024-03-23T09:04:40;30.77;;;15.90;;
85831;SDS011;76278;51.296;16.924;2024-03-23T09:07:05;51.83;;;23.90;;
85831;SDS011;76278;51.296;16.924;2024-03-23T09:09:30;21.75;;;11.68;;
85831;SDS011;76278;51.296;16.924;2024-03-23T09:11:56;26.97;;;14.50;;
85831;SDS011;76278;51.296;16.924;2024-03-23T09:14:21;23.73;;;12.97;;
85831;SDS011;76278;51.296;16.924;2024-03-23T09:16:49;25.02;;;16.20;;
85831;SDS011;76278;51.296;16.924;2024-03-23T09:19:16;22.88;;;13.85;;
85831;SDS011;76278;51.296;16.924;2024-03-23T09:21:42;18.35;;;10.50;;
85831;SDS011;76278;51.296;16.924;2024-03-23T09:24:07;18.47;;;11.30;;
85831;SDS011;76278;51.296;16.924;2024-03-23T09:26:32;19.77;;;10.45;;
85831;SDS011;76278;51.296;16.924;2024-03-23T09:28:58;17.00;;;10.27;;
85831;SDS011;76278;51.296;16.924;2024-03-23T09:31:23;20.03;;;9.97;;
85831;SDS011;76278;51.296;16.924;2024-03-23T09:33:48;16.23;;;9.43;;
85831;SDS011;76278;51.296;16.924;2024-03-23T09:36:14;17.48;;;10.50;;
85831;SDS011;76278;51.296;16.924;2024-03-23T09:38:40;16.37;;;10.40;;
85831;SDS011;76278;51.296;16.924;2024-03-23T09:41:09;16.92;;;10.13;;
85831;SDS011;76278;51.296;16.924;2024-03-23T09:43:35;20.10;;;10.15;;
85831;SDS011;76278;51.296;16.924;2024-03-23T09:46:01;18.98;;;10.57;;
85831;SDS011;76278;51.296;16.924;2024-03-23T09:48:27;19.05;;;11.00;;
85831;SDS011;76278;51.296;16.924;2024-03-23T09:50:52;18.35;;;10.35;;
85831;SDS011;76278;51.296;16.924;2024-03-23T09:53:18;17.05;;;9.35;;
85831;SDS011;76278;51.296;16.924;2024-03-23T09:55:44;16.88;;;9.40;;
85831;SDS011;76278;51.296;16.924;2024-03-23T09:58:13;16.85;;;9.48;;
85831;SDS011;76278;51.296;16.924;2024-03-23T10:00:39;16.50;;;8.80;;
85831;SDS011;76278;51.296;16.924;2024-03-23T10:03:05;15.43;;;9.60;;
85831;SDS011;76278;51.296;16.924;2024-03-23T10:05:31;19.35;;;10.85;;
85831;SDS011;76278;51.296;16.924;2024-03-23T10:07:59;18.80;;;11.00;;
85831;SDS011;76278;51.296;16.924;2024-03-23T10:10:25;16.90;;;10.63;;
85831;SDS011;76278;51.296;16.924;2024-03-23T10:12:51;18.25;;;10.32;;
85831;SDS011;76278;51.296;16.924;2024-03-23T10:15:18;18.38;;;10.10;;
85831;SDS011;76278;51.296;16.924;2024-03-23T10:17:44;16.85;;;10.80;;
85831;SDS011;76278;51.296;16.924;2024-03-23T10:20:10;17.73;;;9.95;;
85831;SDS011;76278;51.296;16.924;2024-03-23T10:22:39;18.92;;;12.35;;
85831;SDS011;76278;51.296;16.924;2024-03-23T10:25:08;24.33;;;15.80;;
85831;SDS011;76278;51.296;16.924;2024-03-23T10:27:34;27.25;;;17.40;;
85831;SDS011;76278;51.296;16.924;2024-03-23T10:30:07;25.00;;;15.57;;
85831;SDS011;76278;51.296;16.924;2024-03-23T10:32:34;24.55;;;16.83;;
85831;SDS011;76278;51.296;16.924;2024-03-23T10:35:18;20.85;;;13.63;;
85831;SDS011;76278;51.296;16.924;2024-03-23T10:37:45;18.42;;;10.75;;
85831;SDS011;76278;51.296;16.924;2024-03-23T10:40:16;16.15;;;9.85;;
85831;SDS011;76278;51.296;16.924;2024-03-23T10:42:43;15.82;;;9.88;;
85831;SDS011;76278;51.296;16.924;2024-03-23T10:45:09;17.48;;;10.80;;
85831;SDS011;76278;51.296;16.924;2024-03-23T10:47:35;16.75;;;10.90;;
85831;SDS011;76278;51.296;16.924;2024-03-23T10:50:01;15.35;;;9.20;;
85831;SDS011;76278;51.296;16.924;2024-03-23T10:52:28;16.13;;;9.63;;
85831;SDS011;76278;51.296;16.924;2024-03-23T10:54:54;17.33;;;9.18;;
85831;SDS011;76278;51.296;16.924;2024-03-23T10:57:21;15.60;;;9.65;;
85831;SDS011;76278;51.296;16.924;2024-03-23T10:59:50;16.00;;;8.98;;
85831;SDS011;76278;51.296;16.924;2024-03-23T11:02:19;16.40;;;9.80;;
85831;SDS011;76278;51.296;16.924;2024-03-23T11:04:45;13.20;;;8.85;;
85831;SDS011;76278;51.296;16.924;2024-03-23T11:09:56;15.57;;;8.63;;
85831;SDS011;76278;51.296;16.924;2024-03-23T11:15:04;13.25;;;8.35;;
85831;SDS011;76278;51.296;16.924;2024-03-23T11:17:30;15.25;;;8.93;;
85831;SDS011;76278;51.296;16.924;2024-03-23T11:19:57;15.30;;;9.65;;
85831;SDS011;76278;51.296;16.924;2024-03-23T11:22:42;14.23;;;9.05;;
85831;SDS011;76278;51.296;16.924;2024-03-23T11:27:37;20.42;;;10.70;;
85831;SDS011;76278;51.296;16.924;2024-03-23T11:30:18;18.75;;;11.30;;
85831;SDS011;76278;51.296;16.924;2024-03-23T11:32:48;15.25;;;10.15;;
85831;SDS011;76278;51.296;16.924;2024-03-23T11:35:33;15.25;;;8.75;;
85831;SDS011;76278;51.296;16.924;2024-03-23T11:40:44;14.57;;;8.73;;
85831;SDS011;76278;51.296;16.924;2024-03-23T11:43:12;13.68;;;8.32;;
85831;SDS011;76278;51.296;16.924;2024-03-23T11:45:39;13.45;;;7.65;;
85831;SDS011;76278;51.296;16.924;2024-03-23T11:48:12;14.55;;;8.43;;
85831;SDS011;76278;51.296;16.924;2024-03-23T11:50:44;14.95;;;8.35;;
85831;SDS011;76278;51.296;16.924;2024-03-23T11:53:17;16.63;;;8.75;;
85831;SDS011;76278;51.296;16.924;2024-03-23T12:00:36;16.15;;;8.43;;
85831;SDS011;76278;51.296;16.924;2024-03-23T12:03:02;14.93;;;9.40;;
85831;SDS011;76278;51.296;16.924;2024-03-23T12:05:28;14.13;;;8.75;;
85831;SDS011;76278;51.296;16.924;2024-03-23T12:07:54;14.88;;;8.75;;
85831;SDS011;76278;51.296;16.924;2024-03-23T12:10:20;14.55;;;8.70;;
85831;SDS011;76278;51.296;16.924;2024-03-23T12:12:45;13.18;;;8.02;;
85831;SDS011;76278;51.296;16.924;2024-03-23T12:15:11;14.80;;;8.90;;
85831;SDS011;76278;51.296;16.924;2024-03-23T12:17:37;15.13;;;8.98;;
85831;SDS011;76278;51.296;16.924;2024-03-23T12:20:03;17.83;;;10.93;;
85831;SDS011;76278;51.296;16.924;2024-03-23T12:22:29;11.57;;;7.40;;
85831;SDS011;76278;51.296;16.924;2024-03-23T12:24:55;10.98;;;6.70;;
85831;SDS011;76278;51.296;16.924;2024-03-23T12:27:21;18.52;;;8.98;;
85831;SDS011;76278;51.296;16.924;2024-03-23T12:29:46;17.98;;;7.85;;
85831;SDS011;76278;51.296;16.924;2024-03-23T12:32:12;11.85;;;6.50;;
85831;SDS011;76278;51.296;16.924;2024-03-23T12:34:41;10.68;;;6.13;;
85831;SDS011;76278;51.296;16.924;2024-03-23T12:37:07;11.05;;;5.95;;
85831;SDS011;76278;51.296;16.924;2024-03-23T12:39:32;20.02;;;8.50;;
85831;SDS011;76278;51.296;16.924;2024-03-23T12:41:57;12.57;;;6.78;;
85831;SDS011;76278;51.296;16.924;2024-03-23T12:44:24;18.77;;;8.70;;
85831;SDS011;76278;51.296;16.924;2024-03-23T12:46:49;19.13;;;9.47;;
85831;SDS011;76278;51.296;16.924;2024-03-23T12:49:15;19.00;;;10.13;;
85831;SDS011;76278;51.296;16.924;2024-03-23T12:51:43;23.25;;;10.50;;
85831;SDS011;76278;51.296;16.924;2024-03-23T12:54:13;15.05;;;8.60;;
85831;SDS011;76278;51.296;16.924;2024-03-23T12:56:38;16.25;;;9.73;;
85831;SDS011;76278;51.296;16.924;2024-03-23T12:59:04;12.20;;;7.35;;
85831;SDS011;76278;51.296;16.924;2024-03-23T13:01:29;11.32;;;6.40;;
85831;SDS011;76278;51.296;16.924;2024-03-23T13:03:54;8.85;;;4.70;;
85831;SDS011;76278;51.296;16.924;2024-03-23T13:06:20;8.23;;;4.50;;
85831;SDS011;76278;51.296;16.924;2024-03-23T13:08:45;10.00;;;4.85;;
85831;SDS011;76278;51.296;16.924;2024-03-23T13:11:11;11.55;;;4.80;;
85831;SDS011;76278;51.296;16.924;2024-03-23T13:13:38;11.02;;;6.03;;
85831;SDS011;76278;51.296;16.924;2024-03-23T13:16:03;11.43;;;5.55;;
85831;SDS011;76278;51.296;16.924;2024-03-23T13:18:30;10.25;;;5.70;;
85831;SDS011;76278;51.296;16.924;2024-03-23T13:20:56;10.65;;;5.43;;
85831;SDS011;76278;51.296;16.924;2024-03-23T13:23:21;11.53;;;6.33;;
85831;SDS011;76278;51.296;16.924;2024-03-23T13:25:53;10.43;;;5.45;;
85831;SDS011;76278;51.296;16.924;2024-03-23T13:28:20;10.18;;;5.20;;
85831;SDS011;76278;51.296;16.924;2024-03-23T13:30:55;9.27;;;4.88;;
85831;SDS011;76278;51.296;16.924;2024-03-23T13:33:21;8.50;;;4.03;;
85831;SDS011;76278;51.296;16.924;2024-03-23T13:35:50;9.55;;;4.60;;
85831;SDS011;76278;51.296;16.924;2024-03-23T13:38:16;9.73;;;4.90;;
85831;SDS011;76278;51.296;16.924;2024-03-23T13:40:54;9.27;;;4.70;;
85831;SDS011;76278;51.296;16.924;2024-03-23T13:43:23;9.88;;;4.20;;
85831;SDS011;76278;51.296;16.924;2024-03-23T13:45:53;8.13;;;3.72;;
85831;SDS011;76278;51.296;16.924;2024-03-23T13:48:19;7.32;;;2.92;;
85831;SDS011;76278;51.296;16.924;2024-03-23T13:50:46;7.20;;;3.63;;
85831;SDS011;76278;51.296;16.924;2024-03-23T13:53:13;6.95;;;2.97;;
85831;SDS011;76278;51.296;16.924;2024-03-23T13:55:45;10.57;;;4.78;;
85831;SDS011;76278;51.296;16.924;2024-03-23T13:58:12;11.15;;;4.10;;
85831;SDS011;76278;51.296;16.924;2024-03-23T14:00:37;11.07;;;4.83;;
85831;SDS011;76278;51.296;16.924;2024-03-23T14:03:03;6.80;;;2.77;;
85831;SDS011;76278;51.296;16.924;2024-03-23T14:05:28;5.97;;;2.72;;
85831;SDS011;76278;51.296;16.924;2024-03-23T14:07:54;5.87;;;2.53;;
85831;SDS011;76278;51.296;16.924;2024-03-23T14:10:19;7.30;;;4.10;;
85831;SDS011;76278;51.296;16.924;2024-03-23T14:12:45;8.18;;;5.00;;
85831;SDS011;76278;51.296;16.924;2024-03-23T14:15:10;7.38;;;3.80;;
85831;SDS011;76278;51.296;16.924;2024-03-23T14:17:35;6.13;;;2.57;;
85831;SDS011;76278;51.296;16.924;2024-03-23T14:20:01;5.50;;;2.00;;
85831;SDS011;76278;51.296;16.924;2024-03-23T14:22:27;3.67;;;1.07;;
85831;SDS011;76278;51.296;16.924;2024-03-23T14:24:53;4.72;;;1.45;;
85831;SDS011;76278;51.296;16.924;2024-03-23T14:27:18;4.85;;;1.77;;
85831;SDS011;76278;51.296;16.924;2024-03-23T14:29:45;5.00;;;2.07;;
85831;SDS011;76278;51.296;16.924;2024-03-23T14:32:11;5.13;;;2.05;;
85831;SDS011;76278;51.296;16.924;2024-03-23T14:34:37;6.78;;;2.45;;
85831;SDS011;76278;51.296;16.924;2024-03-23T14:37:02;5.10;;;2.50;;
85831;SDS011;76278;51.296;16.924;2024-03-23T14:39:28;4.88;;;1.90;;
85831;SDS011;76278;51.296;16.924;2024-03-23T14:41:54;5.30;;;1.85;;
85831;SDS011;76278;51.296;16.924;2024-03-23T14:44:22;11.38;;;4.70;;
85831;SDS011;76278;51.296;16.924;2024-03-23T14:46:49;7.43;;;2.92;;
85831;SDS011;76278;51.296;16.924;2024-03-23T14:49:14;5.68;;;1.90;;
85831;SDS011;76278;51.296;16.924;2024-03-23T14:51:43;3.83;;;1.00;;
85831;SDS011;76278;51.296;16.924;2024-03-23T14:54:08;3.78;;;1.23;;
85831;SDS011;76278;51.296;16.924;2024-03-23T14:56:34;3.85;;;1.13;;
85831;SDS011;76278;51.296;16.924;2024-03-23T14:59:00;5.17;;;1.70;;
85831;SDS011;76278;51.296;16.924;2024-03-23T15:01:25;5.00;;;2.00;;
85831;SDS011;76278;51.296;16.924;2024-03-23T15:03:51;4.70;;;1.70;;
85831;SDS011;76278;51.296;16.924;2024-03-23T15:08:43;6.67;;;1.97;;
85831;SDS011;76278;51.296;16.924;2024-03-23T15:11:08;6.20;;;2.38;;
85831;SDS011;76278;51.296;16.924;2024-03-23T15:13:34;4.60;;;1.40;;
85831;SDS011;76278;51.296;16.924;2024-03-23T15:16:00;3.47;;;1.17;;
85831;SDS011;76278;51.296;16.924;2024-03-23T15:18:28;3.35;;;1.10;;
85831;SDS011;76278;51.296;16.924;2024-03-23T15:20:55;4.85;;;1.45;;
85831;SDS011;76278;51.296;16.924;2024-03-23T15:23:21;4.15;;;1.42;;